sensor_id;sensor_type;location;lat;lon;timestamp;temperature;humidity
10213;DHT22;5150;51.400;6.692;2022-12-07T00:02:20;4.40;99.90
10213;DHT22;5150;51.400;6.692;2022-12-07T00:05:46;4.40;99.90
10213;DHT22;5150;51.400;6.692;2022-12-07T00:09:11;4.40;99.90
10213;DHT22;5150;51.400;6.692;2022-12-07T00:12:34;4.40;99.90
10213;DHT22;5150;51.400;6.692;2022-12-07T00:16:00;4.50;99.90
10213;DHT22;5150;51.400;6.692;2022-12-07T00:19:24;4.50;99.90
10213;DHT22;5150;51.400;6.692;2022-12-07T00:22:48;4.50;99.90
10213;DHT22;5150;51.400;6.692;2022-12-07T00:26:13;4.50;99.90
10213;DHT22;5150;51.400;6.692;2022-12-07T00:29:37;4.50;99.90
10213;DHT22;5150;51.400;6.692;2022-12-07T00:33:00;4.50;99.90
10213;DHT22;5150;51.400;6.692;2022-12-07T00:36:24;4.50;99.90
10213;DHT22;5150;51.400;6.692;2022-12-07T00:39:49;4.50;99.90
10213;DHT22;5150;51.400;6.692;2022-12-07T00:43:12;4.50;99.90
10213;DHT22;5150;51.400;6.692;2022-12-07T00:46:35;4.50;99.90
10213;DHT22;5150;51.400;6.692;2022-12-07T00:49:58;4.50;99.90
10213;DHT22;5150;51.400;6.692;2022-12-07T00:53:22;4.40;99.90
10213;DHT22;5150;51.400;6.692;2022-12-07T00:56:47;4.40;99.90
10213;DHT22;5150;51.400;6.692;2022-12-07T01:00:10;4.40;99.90
10213;DHT22;5150;51.400;6.692;2022-12-07T01:03:33;4.40;99.90
10213;DHT22;5150;51.400;6.692;2022-12-07T01:06:57;4.40;99.90
10213;DHT22;5150;51.400;6.692;2022-12-07T01:10:20;4.40;99.90
10213;DHT22;5150;51.400;6.692;2022-12-07T01:13:44;4.40;99.90
10213;DHT22;5150;51.400;6.692;2022-12-07T01:17:07;4.40;99.90
10213;DHT22;5150;51.400;6.692;2022-12-07T01:20:31;4.30;99.90
10213;DHT22;5150;51.400;6.692;2022-12-07T01:23:54;4.30;99.90
10213;DHT22;5150;51.400;6.692;2022-12-07T01:27:17;4.20;99.90
10213;DHT22;5150;51.400;6.692;2022-12-07T01:30:41;4.10;99.90
10213;DHT22;5150;51.400;6.692;2022-12-07T01:34:04;4.00;99.90
10213;DHT22;5150;51.400;6.692;2022-12-07T01:37:27;3.90;99.90
10213;DHT22;5150;51.400;6.692;2022-12-07T01:40:54;3.90;99.90
10213;DHT22;5150;51.400;6.692;2022-12-07T01:44:20;3.90;99.90
10213;DHT22;5150;51.400;6.692;2022-12-07T01:47:48;3.90;99.90
10213;DHT22;5150;51.400;6.692;2022-12-07T01:51:13;3.80;99.90
10213;DHT22;5150;51.400;6.692;2022-12-07T01:54:37;3.80;99.90
10213;DHT22;5150;51.400;6.692;2022-12-07T01:58:00;3.80;99.90
10213;DHT22;5150;51.400;6.692;2022-12-07T02:01:23;3.70;99.90
10213;DHT22;5150;51.400;6.692;2022-12-07T02:04:49;3.60;99.90
10213;DHT22;5150;51.400;6.692;2022-12-07T02:08:14;3.60;99.90
10213;DHT22;5150;51.400;6.692;2022-12-07T02:11:37;3.50;99.90
10213;DHT22;5150;51.400;6.692;2022-12-07T02:15:00;3.50;99.90
10213;DHT22;5150;51.400;6.692;2022-12-07T02:18:30;3.40;99.90
10213;DHT22;5150;51.400;6.692;2022-12-07T02:22:01;3.50;99.90
10213;DHT22;5150;51.400;6.692;2022-12-07T02:25:43;3.60;99.90
10213;DHT22;5150;51.400;6.692;2022-12-07T02:29:19;3.70;99.90
10213;DHT22;5150;51.400;6.692;2022-12-07T02:32:48;3.80;99.90
10213;DHT22;5150;51.400;6.692;2022-12-07T02:36:17;3.70;99.90
10213;DHT22;5150;51.400;6.692;2022-12-07T02:39:47;3.70;99.90
10213;DHT22;5150;51.400;6.692;2022-12-07T02:43:14;3.60;99.90
10213;DHT22;5150;51.400;6.692;2022-12-07T02:46:44;3.60;99.90
10213;DHT22;5150;51.400;6.692;2022-12-07T02:50:10;3.60;99.90
10213;DHT22;5150;51.400;6.692;2022-12-07T02:53:35;3.50;99.90
10213;DHT22;5150;51.400;6.692;2022-12-07T02:57:09;3.40;99.90
10213;DHT22;5150;51.400;6.692;2022-12-07T03:00:51;3.30;99.90
10213;DHT22;5150;51.400;6.692;2022-12-07T03:04:29;3.30;99.90
10213;DHT22;5150;51.400;6.692;2022-12-07T03:08:00;3.20;99.90
10213;DHT22;5150;51.400;6.692;2022-12-07T03:11:29;3.00;99.90
10213;DHT22;5150;51.400;6.692;2022-12-07T03:15:01;3.00;99.90
10213;DHT22;5150;51.400;6.692;2022-12-07T03:18:28;2.90;99.90
10213;DHT22;5150;51.400;6.692;2022-12-07T03:21:55;3.00;99.90
10213;DHT22;5150;51.400;6.692;2022-12-07T03:25:19;3.00;99.90
10213;DHT22;5150;51.400;6.692;2022-12-07T03:28:47;3.00;99.90
10213;DHT22;5150;51.400;6.692;2022-12-07T03:32:24;2.90;99.90
10213;DHT22;5150;51.400;6.692;2022-12-07T03:35:51;2.80;99.90
10213;DHT22;5150;51.400;6.692;2022-12-07T03:39:24;2.60;99.90
10213;DHT22;5150;51.400;6.692;2022-12-07T03:42:47;2.40;99.90
10213;DHT22;5150;51.400;6.692;2022-12-07T03:46:19;2.40;99.90
10213;DHT22;5150;51.400;6.692;2022-12-07T03:49:45;2.40;99.90
10213;DHT22;5150;51.400;6.692;2022-12-07T03:53:14;2.50;99.90
10213;DHT22;5150;51.400;6.692;2022-12-07T03:56:39;2.60;99.90
10213;DHT22;5150;51.400;6.692;2022-12-07T04:00:06;2.80;99.90
10213;DHT22;5150;51.400;6.692;2022-12-07T04:03:35;2.90;99.90
10213;DHT22;5150;51.400;6.692;2022-12-07T04:06:58;3.00;99.90
10213;DHT22;5150;51.400;6.692;2022-12-07T04:10:21;3.00;99.90
10213;DHT22;5150;51.400;6.692;2022-12-07T04:13:45;3.10;99.90
10213;DHT22;5150;51.400;6.692;2022-12-07T04:17:26;3.10;99.90
10213;DHT22;5150;51.400;6.692;2022-12-07T04:20:49;3.10;99.90
10213;DHT22;5150;51.400;6.692;2022-12-07T04:24:13;3.10;99.90
10213;DHT22;5150;51.400;6.692;2022-12-07T04:27:36;3.10;99.90
10213;DHT22;5150;51.400;6.692;2022-12-07T04:31:00;3.10;99.90
10213;DHT22;5150;51.400;6.692;2022-12-07T04:34:24;3.00;99.90
10213;DHT22;5150;51.400;6.692;2022-12-07T04:37:47;2.80;99.90
10213;DHT22;5150;51.400;6.692;2022-12-07T04:41:10;2.60;99.90
10213;DHT22;5150;51.400;6.692;2022-12-07T04:44:33;2.50;99.90
10213;DHT22;5150;51.400;6.692;2022-12-07T04:47:57;2.60;99.90
10213;DHT22;5150;51.400;6.692;2022-12-07T04:51:22;2.60;99.90
10213;DHT22;5150;51.400;6.692;2022-12-07T04:54:46;2.60;99.90
10213;DHT22;5150;51.400;6.692;2022-12-07T04:58:09;2.60;99.90
10213;DHT22;5150;51.400;6.692;2022-12-07T05:01:32;2.50;99.90
10213;DHT22;5150;51.400;6.692;2022-12-07T05:04:57;2.40;99.90
10213;DHT22;5150;51.400;6.692;2022-12-07T05:08:20;2.40;99.90
10213;DHT22;5150;51.400;6.692;2022-12-07T05:11:43;2.50;99.90
10213;DHT22;5150;51.400;6.692;2022-12-07T05:15:06;2.70;99.90
10213;DHT22;5150;51.400;6.692;2022-12-07T05:18:29;2.70;99.90
10213;DHT22;5150;51.400;6.692;2022-12-07T05:21:54;2.80;99.90
10213;DHT22;5150;51.400;6.692;2022-12-07T05:25:17;2.80;99.90
10213;DHT22;5150;51.400;6.692;2022-12-07T05:28:40;2.80;99.90
10213;DHT22;5150;51.400;6.692;2022-12-07T05:32:03;2.80;99.90
10213;DHT22;5150;51.400;6.692;2022-12-07T05:35:26;2.80;99.90
10213;DHT22;5150;51.400;6.692;2022-12-07T05:38:51;2.70;99.90
10213;DHT22;5150;51.400;6.692;2022-12-07T05:42:14;2.70;99.90
10213;DHT22;5150;51.400;6.692;2022-12-07T05:45:38;2.80;99.90
10213;DHT22;5150;51.400;6.692;2022-12-07T05:49:01;2.80;99.90
10213;DHT22;5150;51.400;6.692;2022-12-07T05:52:24;2.80;99.90
10213;DHT22;5150;51.400;6.692;2022-12-07T05:55:49;2.80;99.90
10213;DHT22;5150;51.400;6.692;2022-12-07T05:59:12;2.80;99.90
10213;DHT22;5150;51.400;6.692;2022-12-07T06:02:49;2.80;99.90
10213;DHT22;5150;51.400;6.692;2022-12-07T06:06:12;2.90;99.90
10213;DHT22;5150;51.400;6.692;2022-12-07T06:09:35;2.90;99.90
10213;DHT22;5150;51.400;6.692;2022-12-07T06:13:00;2.80;99.90
10213;DHT22;5150;51.400;6.692;2022-12-07T06:16:23;2.70;99.90
10213;DHT22;5150;51.400;6.692;2022-12-07T06:19:46;2.70;99.90
10213;DHT22;5150;51.400;6.692;2022-12-07T06:23:09;2.80;99.90
10213;DHT22;5150;51.400;6.692;2022-12-07T06:26:32;2.70;99.90
10213;DHT22;5150;51.400;6.692;2022-12-07T06:29:56;2.60;99.90
10213;DHT22;5150;51.400;6.692;2022-12-07T06:33:20;2.60;99.90
10213;DHT22;5150;51.400;6.692;2022-12-07T06:36:43;2.60;99.90
10213;DHT22;5150;51.400;6.692;2022-12-07T06:40:08;2.60;99.90
10213;DHT22;5150;51.400;6.692;2022-12-07T06:43:32;2.60;99.90
10213;DHT22;5150;51.400;6.692;2022-12-07T06:46:57;2.60;99.90
10213;DHT22;5150;51.400;6.692;2022-12-07T06:50:40;2.60;99.90
10213;DHT22;5150;51.400;6.692;2022-12-07T06:54:04;2.70;99.90
10213;DHT22;5150;51.400;6.692;2022-12-07T06:57:27;2.70;99.90
10213;DHT22;5150;51.400;6.692;2022-12-07T07:00:50;2.60;99.90
10213;DHT22;5150;51.400;6.692;2022-12-07T07:04:14;2.60;99.90
10213;DHT22;5150;51.400;6.692;2022-12-07T07:07:37;2.50;99.90
10213;DHT22;5150;51.400;6.692;2022-12-07T07:11:20;2.50;99.90
10213;DHT22;5150;51.400;6.692;2022-12-07T07:14:43;2.30;99.90
10213;DHT22;5150;51.400;6.692;2022-12-07T07:18:07;2.10;99.90
10213;DHT22;5150;51.400;6.692;2022-12-07T07:21:31;1.90;99.90
10213;DHT22;5150;51.400;6.692;2022-12-07T07:24:54;1.90;99.90
10213;DHT22;5150;51.400;6.692;2022-12-07T07:28:17;1.90;99.90
10213;DHT22;5150;51.400;6.692;2022-12-07T07:31:40;1.90;99.90
10213;DHT22;5150;51.400;6.692;2022-12-07T07:35:04;2.00;99.90
10213;DHT22;5150;51.400;6.692;2022-12-07T07:41:52;2.00;99.90
10213;DHT22;5150;51.400;6.692;2022-12-07T07:45:21;1.80;99.90
10213;DHT22;5150;51.400;6.692;2022-12-07T07:48:46;1.70;99.90
10213;DHT22;5150;51.400;6.692;2022-12-07T07:52:09;1.80;99.90
10213;DHT22;5150;51.400;6.692;2022-12-07T07:55:34;1.90;99.90
10213;DHT22;5150;51.400;6.692;2022-12-07T07:58:57;1.90;99.90
10213;DHT22;5150;51.400;6.692;2022-12-07T08:02:20;1.90;99.90
10213;DHT22;5150;51.400;6.692;2022-12-07T08:05:43;2.00;99.90
10213;DHT22;5150;51.400;6.692;2022-12-07T08:09:09;2.00;99.90
10213;DHT22;5150;51.400;6.692;2022-12-07T08:12:36;2.00;99.90
10213;DHT22;5150;51.400;6.692;2022-12-07T08:16:20;2.00;99.90
10213;DHT22;5150;51.400;6.692;2022-12-07T08:19:43;2.00;99.90
10213;DHT22;5150;51.400;6.692;2022-12-07T08:23:07;2.10;99.90
10213;DHT22;5150;51.400;6.692;2022-12-07T08:26:30;2.20;99.90
10213;DHT22;5150;51.400;6.692;2022-12-07T08:29:55;2.30;99.90
10213;DHT22;5150;51.400;6.692;2022-12-07T08:33:18;2.40;99.90
10213;DHT22;5150;51.400;6.692;2022-12-07T08:36:44;2.40;99.90
10213;DHT22;5150;51.400;6.692;2022-12-07T08:40:08;2.50;99.90
10213;DHT22;5150;51.400;6.692;2022-12-07T08:43:32;2.70;99.90
10213;DHT22;5150;51.400;6.692;2022-12-07T08:47:00;2.90;99.90
10213;DHT22;5150;51.400;6.692;2022-12-07T08:50:24;3.20;99.90
10213;DHT22;5150;51.400;6.692;2022-12-07T08:53:48;3.40;99.90
10213;DHT22;5150;51.400;6.692;2022-12-07T08:57:12;3.60;99.90
10213;DHT22;5150;51.400;6.692;2022-12-07T09:00:35;3.70;99.90
10213;DHT22;5150;51.400;6.692;2022-12-07T09:03:59;4.00;99.90
10213;DHT22;5150;51.400;6.692;2022-12-07T09:07:22;4.60;99.90
10213;DHT22;5150;51.400;6.692;2022-12-07T09:10:46;4.50;99.90
10213;DHT22;5150;51.400;6.692;2022-12-07T09:14:09;4.40;99.90
10213;DHT22;5150;51.400;6.692;2022-12-07T09:17:33;4.40;99.90
10213;DHT22;5150;51.400;6.692;2022-12-07T09:20:57;7.00;99.90
10213;DHT22;5150;51.400;6.692;2022-12-07T09:24:20;9.90;99.90
10213;DHT22;5150;51.400;6.692;2022-12-07T09:27:44;10.00;99.90
10213;DHT22;5150;51.400;6.692;2022-12-07T09:31:07;8.40;99.90
10213;DHT22;5150;51.400;6.692;2022-12-07T09:34:47;7.20;99.90
10213;DHT22;5150;51.400;6.692;2022-12-07T09:38:11;6.30;99.90
10213;DHT22;5150;51.400;6.692;2022-12-07T09:41:39;5.90;99.90
10213;DHT22;5150;51.400;6.692;2022-12-07T09:45:05;5.80;99.90
10213;DHT22;5150;51.400;6.692;2022-12-07T09:48:31;6.00;99.90
10213;DHT22;5150;51.400;6.692;2022-12-07T09:52:01;6.40;99.90
10213;DHT22;5150;51.400;6.692;2022-12-07T09:55:27;6.90;99.90
10213;DHT22;5150;51.400;6.692;2022-12-07T09:58:57;7.50;99.90
10213;DHT22;5150;51.400;6.692;2022-12-07T10:02:26;8.30;99.90
10213;DHT22;5150;51.400;6.692;2022-12-07T10:05:54;9.10;99.90
10213;DHT22;5150;51.400;6.692;2022-12-07T10:09:21;11.00;99.90
10213;DHT22;5150;51.400;6.692;2022-12-07T10:12:58;9.80;99.90
10213;DHT22;5150;51.400;6.692;2022-12-07T10:16:35;10.00;99.90
10213;DHT22;5150;51.400;6.692;2022-12-07T10:20:16;12.10;99.90
10213;DHT22;5150;51.400;6.692;2022-12-07T10:23:41;13.90;97.00
10213;DHT22;5150;51.400;6.692;2022-12-07T10:27:05;15.00;99.90
10213;DHT22;5150;51.400;6.692;2022-12-07T10:30:30;15.90;95.20
10213;DHT22;5150;51.400;6.692;2022-12-07T10:33:56;17.00;91.10
10213;DHT22;5150;51.400;6.692;2022-12-07T10:37:20;17.10;80.60
10213;DHT22;5150;51.400;6.692;2022-12-07T10:40:47;15.00;88.30
10213;DHT22;5150;51.400;6.692;2022-12-07T10:44:21;13.60;96.10
10213;DHT22;5150;51.400;6.692;2022-12-07T10:47:48;13.50;90.60
10213;DHT22;5150;51.400;6.692;2022-12-07T10:51:19;12.90;94.20
10213;DHT22;5150;51.400;6.692;2022-12-07T10:54:51;12.30;94.10
10213;DHT22;5150;51.400;6.692;2022-12-07T10:58:43;14.00;93.00
10213;DHT22;5150;51.400;6.692;2022-12-07T11:02:24;15.90;85.30
10213;DHT22;5150;51.400;6.692;2022-12-07T11:05:53;15.40;78.10
10213;DHT22;5150;51.400;6.692;2022-12-07T11:13:37;15.30;80.50
10213;DHT22;5150;51.400;6.692;2022-12-07T11:17:07;14.30;87.90
10213;DHT22;5150;51.400;6.692;2022-12-07T11:20:41;15.90;81.30
10213;DHT22;5150;51.400;6.692;2022-12-07T11:24:11;14.20;80.90
10213;DHT22;5150;51.400;6.692;2022-12-07T11:27:40;12.10;91.30
10213;DHT22;5150;51.400;6.692;2022-12-07T11:31:12;10.80;97.10
10213;DHT22;5150;51.400;6.692;2022-12-07T11:34:44;10.60;99.30
10213;DHT22;5150;51.400;6.692;2022-12-07T11:38:12;10.90;99.90
10213;DHT22;5150;51.400;6.692;2022-12-07T11:41:40;11.50;99.40
10213;DHT22;5150;51.400;6.692;2022-12-07T11:45:14;10.50;99.90
10213;DHT22;5150;51.400;6.692;2022-12-07T11:48:40;9.60;99.90
10213;DHT22;5150;51.400;6.692;2022-12-07T11:52:06;9.30;99.90
10213;DHT22;5150;51.400;6.692;2022-12-07T11:55:42;9.00;99.90
10213;DHT22;5150;51.400;6.692;2022-12-07T11:59:11;8.60;99.90
10213;DHT22;5150;51.400;6.692;2022-12-07T12:02:41;8.50;99.90
10213;DHT22;5150;51.400;6.692;2022-12-07T12:06:07;8.10;99.90
10213;DHT22;5150;51.400;6.692;2022-12-07T12:09:33;8.00;99.90
10213;DHT22;5150;51.400;6.692;2022-12-07T12:13:12;8.10;99.90
10213;DHT22;5150;51.400;6.692;2022-12-07T12:17:23;8.10;99.90
10213;DHT22;5150;51.400;6.692;2022-12-07T12:20:52;7.70;99.90
10213;DHT22;5150;51.400;6.692;2022-12-07T12:24:20;7.60;99.90
10213;DHT22;5150;51.400;6.692;2022-12-07T12:27:47;7.70;99.90
10213;DHT22;5150;51.400;6.692;2022-12-07T12:31:14;7.80;99.90
10213;DHT22;5150;51.400;6.692;2022-12-07T12:34:42;7.40;99.90
10213;DHT22;5150;51.400;6.692;2022-12-07T12:38:30;6.90;99.90
10213;DHT22;5150;51.400;6.692;2022-12-07T12:41:59;6.20;99.90
10213;DHT22;5150;51.400;6.692;2022-12-07T12:45:29;5.50;99.90
10213;DHT22;5150;51.400;6.692;2022-12-07T12:48:52;5.30;99.90
10213;DHT22;5150;51.400;6.692;2022-12-07T12:52:53;5.60;99.90
10213;DHT22;5150;51.400;6.692;2022-12-07T12:56:29;5.90;99.90
10213;DHT22;5150;51.400;6.692;2022-12-07T12:59:59;6.10;99.90
10213;DHT22;5150;51.400;6.692;2022-12-07T13:03:26;6.10;99.90
10213;DHT22;5150;51.400;6.692;2022-12-07T13:06:49;6.30;99.90
10213;DHT22;5150;51.400;6.692;2022-12-07T13:10:24;6.30;99.90
10213;DHT22;5150;51.400;6.692;2022-12-07T13:13:50;6.30;99.90
10213;DHT22;5150;51.400;6.692;2022-12-07T13:21:42;6.70;99.90
10213;DHT22;5150;51.400;6.692;2022-12-07T13:25:10;6.80;99.90
10213;DHT22;5150;51.400;6.692;2022-12-07T13:28:38;7.00;99.90
10213;DHT22;5150;51.400;6.692;2022-12-07T13:32:02;7.20;99.90
10213;DHT22;5150;51.400;6.692;2022-12-07T13:35:31;7.20;99.90
10213;DHT22;5150;51.400;6.692;2022-12-07T13:38:57;7.00;99.90
10213;DHT22;5150;51.400;6.692;2022-12-07T13:42:25;6.90;99.90
10213;DHT22;5150;51.400;6.692;2022-12-07T13:45:57;6.70;99.90
10213;DHT22;5150;51.400;6.692;2022-12-07T13:49:23;6.50;99.90
10213;DHT22;5150;51.400;6.692;2022-12-07T13:52:46;6.40;99.90
10213;DHT22;5150;51.400;6.692;2022-12-07T13:56:13;6.40;99.90
10213;DHT22;5150;51.400;6.692;2022-12-07T13:59:37;6.70;99.90
10213;DHT22;5150;51.400;6.692;2022-12-07T14:03:04;6.70;99.90
10213;DHT22;5150;51.400;6.692;2022-12-07T14:06:27;6.60;99.90
10213;DHT22;5150;51.400;6.692;2022-12-07T14:09:59;6.50;99.90
10213;DHT22;5150;51.400;6.692;2022-12-07T14:13:28;6.20;99.90
10213;DHT22;5150;51.400;6.692;2022-12-07T14:16:58;6.20;99.90
10213;DHT22;5150;51.400;6.692;2022-12-07T14:20:37;6.10;99.90
10213;DHT22;5150;51.400;6.692;2022-12-07T14:24:17;5.90;99.90
10213;DHT22;5150;51.400;6.692;2022-12-07T14:27:49;5.70;99.90
10213;DHT22;5150;51.400;6.692;2022-12-07T14:31:14;5.50;99.90
10213;DHT22;5150;51.400;6.692;2022-12-07T14:35:02;5.40;99.90
10213;DHT22;5150;51.400;6.692;2022-12-07T14:38:27;5.30;99.90
10213;DHT22;5150;51.400;6.692;2022-12-07T14:41:50;5.10;99.90
10213;DHT22;5150;51.400;6.692;2022-12-07T14:45:15;5.00;99.90
10213;DHT22;5150;51.400;6.692;2022-12-07T14:48:39;4.80;99.90
10213;DHT22;5150;51.400;6.692;2022-12-07T14:52:28;4.80;99.90
10213;DHT22;5150;51.400;6.692;2022-12-07T14:56:13;4.70;99.90
10213;DHT22;5150;51.400;6.692;2022-12-07T14:59:36;4.50;99.90
10213;DHT22;5150;51.400;6.692;2022-12-07T15:03:05;4.30;99.90
10213;DHT22;5150;51.400;6.692;2022-12-07T15:06:28;4.20;99.90
10213;DHT22;5150;51.400;6.692;2022-12-07T15:09:51;4.10;99.90
10213;DHT22;5150;51.400;6.692;2022-12-07T15:13:16;4.00;99.90
10213;DHT22;5150;51.400;6.692;2022-12-07T15:16:56;3.90;99.90
10213;DHT22;5150;51.400;6.692;2022-12-07T15:20:40;3.80;99.90
10213;DHT22;5150;51.400;6.692;2022-12-07T15:24:03;3.80;99.90
10213;DHT22;5150;51.400;6.692;2022-12-07T15:27:28;3.80;99.90
10213;DHT22;5150;51.400;6.692;2022-12-07T15:30:53;3.90;99.90
10213;DHT22;5150;51.400;6.692;2022-12-07T15:34:16;4.00;99.90
10213;DHT22;5150;51.400;6.692;2022-12-07T15:37:39;4.10;99.90
10213;DHT22;5150;51.400;6.692;2022-12-07T15:41:03;4.10;99.90
10213;DHT22;5150;51.400;6.692;2022-12-07T15:44:27;4.10;99.90
10213;DHT22;5150;51.400;6.692;2022-12-07T15:48:09;4.10;99.90
10213;DHT22;5150;51.400;6.692;2022-12-07T15:51:49;4.10;99.90
10213;DHT22;5150;51.400;6.692;2022-12-07T15:55:12;4.10;99.90
10213;DHT22;5150;51.400;6.692;2022-12-07T15:58:35;4.10;99.90
10213;DHT22;5150;51.400;6.692;2022-12-07T16:01:59;4.10;99.90
10213;DHT22;5150;51.400;6.692;2022-12-07T16:05:23;4.10;99.90
10213;DHT22;5150;51.400;6.692;2022-12-07T16:08:47;4.20;99.90
10213;DHT22;5150;51.400;6.692;2022-12-07T16:12:11;4.10;99.90
10213;DHT22;5150;51.400;6.692;2022-12-07T16:15:37;4.20;99.90
10213;DHT22;5150;51.400;6.692;2022-12-07T16:19:00;4.20;99.90
10213;DHT22;5150;51.400;6.692;2022-12-07T16:22:25;4.30;99.90
10213;DHT22;5150;51.400;6.692;2022-12-07T16:25:49;4.30;99.90
10213;DHT22;5150;51.400;6.692;2022-12-07T16:29:12;4.30;99.90
10213;DHT22;5150;51.400;6.692;2022-12-07T16:32:42;4.30;99.90
10213;DHT22;5150;51.400;6.692;2022-12-07T16:36:06;4.30;99.90
10213;DHT22;5150;51.400;6.692;2022-12-07T16:39:31;4.30;99.90
10213;DHT22;5150;51.400;6.692;2022-12-07T16:42:54;4.30;99.90
10213;DHT22;5150;51.400;6.692;2022-12-07T16:46:23;4.30;99.90
10213;DHT22;5150;51.400;6.692;2022-12-07T16:49:47;4.30;99.90
10213;DHT22;5150;51.400;6.692;2022-12-07T16:53:11;4.30;99.90
10213;DHT22;5150;51.400;6.692;2022-12-07T16:56:35;4.40;99.90
10213;DHT22;5150;51.400;6.692;2022-12-07T16:59:58;4.40;99.90
10213;DHT22;5150;51.400;6.692;2022-12-07T17:03:22;4.30;99.90
10213;DHT22;5150;51.400;6.692;2022-12-07T17:06:45;4.20;99.90
10213;DHT22;5150;51.400;6.692;2022-12-07T17:10:09;4.20;99.90
10213;DHT22;5150;51.400;6.692;2022-12-07T17:13:34;4.10;99.90
10213;DHT22;5150;51.400;6.692;2022-12-07T17:17:14;4.10;99.90
10213;DHT22;5150;51.400;6.692;2022-12-07T17:20:37;4.00;99.90
10213;DHT22;5150;51.400;6.692;2022-12-07T17:24:02;3.90;99.90
10213;DHT22;5150;51.400;6.692;2022-12-07T17:27:25;3.90;99.90
10213;DHT22;5150;51.400;6.692;2022-12-07T17:30:50;3.80;99.90
10213;DHT22;5150;51.400;6.692;2022-12-07T17:34:14;3.80;99.90
10213;DHT22;5150;51.400;6.692;2022-12-07T17:37:37;3.80;99.90
10213;DHT22;5150;51.400;6.692;2022-12-07T17:41:08;3.80;99.90
10213;DHT22;5150;51.400;6.692;2022-12-07T17:44:32;3.80;99.90
10213;DHT22;5150;51.400;6.692;2022-12-07T17:47:56;3.70;99.90
10213;DHT22;5150;51.400;6.692;2022-12-07T17:51:19;3.70;99.90
10213;DHT22;5150;51.400;6.692;2022-12-07T17:55:00;3.60;99.90
10213;DHT22;5150;51.400;6.692;2022-12-07T17:58:24;3.60;99.90
10213;DHT22;5150;51.400;6.692;2022-12-07T18:01:47;3.60;99.90
10213;DHT22;5150;51.400;6.692;2022-12-07T18:05:11;3.60;99.90
10213;DHT22;5150;51.400;6.692;2022-12-07T18:08:35;3.60;99.90
10213;DHT22;5150;51.400;6.692;2022-12-07T18:11:59;3.50;99.90
10213;DHT22;5150;51.400;6.692;2022-12-07T18:15:22;3.50;99.90
10213;DHT22;5150;51.400;6.692;2022-12-07T18:18:46;3.50;99.90
10213;DHT22;5150;51.400;6.692;2022-12-07T18:22:15;3.40;99.90
10213;DHT22;5150;51.400;6.692;2022-12-07T18:25:38;3.40;99.90
10213;DHT22;5150;51.400;6.692;2022-12-07T18:29:01;3.40;99.90
10213;DHT22;5150;51.400;6.692;2022-12-07T18:32:25;3.40;99.90
10213;DHT22;5150;51.400;6.692;2022-12-07T18:35:50;3.30;99.90
10213;DHT22;5150;51.400;6.692;2022-12-07T18:39:15;3.30;99.90
10213;DHT22;5150;51.400;6.692;2022-12-07T18:42:38;3.30;99.90
10213;DHT22;5150;51.400;6.692;2022-12-07T18:46:08;3.30;99.90
10213;DHT22;5150;51.400;6.692;2022-12-07T18:49:32;3.20;99.90
10213;DHT22;5150;51.400;6.692;2022-12-07T18:52:56;3.20;99.90
10213;DHT22;5150;51.400;6.692;2022-12-07T18:56:22;3.20;99.90
10213;DHT22;5150;51.400;6.692;2022-12-07T18:59:45;3.30;99.90
10213;DHT22;5150;51.400;6.692;2022-12-07T19:03:10;3.30;99.90
10213;DHT22;5150;51.400;6.692;2022-12-07T19:06:33;3.40;99.90
10213;DHT22;5150;51.400;6.692;2022-12-07T19:09:56;3.30;99.90
10213;DHT22;5150;51.400;6.692;2022-12-07T19:13:21;3.30;99.90
10213;DHT22;5150;51.400;6.692;2022-12-07T19:16:45;3.20;99.90
10213;DHT22;5150;51.400;6.692;2022-12-07T19:20:13;3.30;99.90
10213;DHT22;5150;51.400;6.692;2022-12-07T19:23:36;3.20;99.90
10213;DHT22;5150;51.400;6.692;2022-12-07T19:27:02;3.20;99.90
10213;DHT22;5150;51.400;6.692;2022-12-07T19:30:27;3.10;99.90
10213;DHT22;5150;51.400;6.692;2022-12-07T19:33:50;3.10;99.90
10213;DHT22;5150;51.400;6.692;2022-12-07T19:37:14;3.20;99.90
10213;DHT22;5150;51.400;6.692;2022-12-07T19:40:37;3.10;99.90
10213;DHT22;5150;51.400;6.692;2022-12-07T19:44:02;3.20;99.90
10213;DHT22;5150;51.400;6.692;2022-12-07T19:47:27;3.20;99.90
10213;DHT22;5150;51.400;6.692;2022-12-07T19:50:50;3.20;99.90
10213;DHT22;5150;51.400;6.692;2022-12-07T19:54:13;3.20;99.90
10213;DHT22;5150;51.400;6.692;2022-12-07T19:57:37;3.20;99.90
10213;DHT22;5150;51.400;6.692;2022-12-07T20:01:01;3.20;99.90
10213;DHT22;5150;51.400;6.692;2022-12-07T20:04:28;3.20;99.90
10213;DHT22;5150;51.400;6.692;2022-12-07T20:07:51;3.10;99.90
10213;DHT22;5150;51.400;6.692;2022-12-07T20:11:16;3.10;99.90
10213;DHT22;5150;51.400;6.692;2022-12-07T20:14:57;3.10;99.90
10213;DHT22;5150;51.400;6.692;2022-12-07T20:18:20;3.20;99.90
10213;DHT22;5150;51.400;6.692;2022-12-07T20:21:45;3.20;99.90
10213;DHT22;5150;51.400;6.692;2022-12-07T20:25:08;3.20;99.90
10213;DHT22;5150;51.400;6.692;2022-12-07T20:28:32;3.20;99.90
10213;DHT22;5150;51.400;6.692;2022-12-07T20:31:55;3.30;99.90
10213;DHT22;5150;51.400;6.692;2022-12-07T20:35:19;3.30;99.90
10213;DHT22;5150;51.400;6.692;2022-12-07T20:38:44;3.30;99.90
10213;DHT22;5150;51.400;6.692;2022-12-07T20:42:08;3.30;99.90
10213;DHT22;5150;51.400;6.692;2022-12-07T20:45:49;3.30;99.90
10213;DHT22;5150;51.400;6.692;2022-12-07T20:49:13;3.30;99.90
10213;DHT22;5150;51.400;6.692;2022-12-07T20:52:37;3.30;99.90
10213;DHT22;5150;51.400;6.692;2022-12-07T20:56:02;3.20;99.90
10213;DHT22;5150;51.400;6.692;2022-12-07T20:59:25;3.20;99.90
10213;DHT22;5150;51.400;6.692;2022-12-07T21:02:48;3.20;99.90
10213;DHT22;5150;51.400;6.692;2022-12-07T21:06:12;3.20;99.90
10213;DHT22;5150;51.400;6.692;2022-12-07T21:09:36;3.20;99.90
10213;DHT22;5150;51.400;6.692;2022-12-07T21:13:00;3.20;99.90
10213;DHT22;5150;51.400;6.692;2022-12-07T21:16:25;3.20;99.90
10213;DHT22;5150;51.400;6.692;2022-12-07T21:19:49;3.10;99.90
10213;DHT22;5150;51.400;6.692;2022-12-07T21:23:12;3.10;99.90
10213;DHT22;5150;51.400;6.692;2022-12-07T21:26:35;3.10;99.90
10213;DHT22;5150;51.400;6.692;2022-12-07T21:30:00;3.20;99.90
10213;DHT22;5150;51.400;6.692;2022-12-07T21:33:25;3.20;99.90
10213;DHT22;5150;51.400;6.692;2022-12-07T21:36:48;3.20;99.90
10213;DHT22;5150;51.400;6.692;2022-12-07T21:40:11;3.20;99.90
10213;DHT22;5150;51.400;6.692;2022-12-07T21:43:37;3.20;99.90
10213;DHT22;5150;51.400;6.692;2022-12-07T21:47:02;3.20;99.90
10213;DHT22;5150;51.400;6.692;2022-12-07T21:50:25;3.20;99.90
10213;DHT22;5150;51.400;6.692;2022-12-07T21:53:50;3.30;99.90
10213;DHT22;5150;51.400;6.692;2022-12-07T21:57:13;3.30;99.90
10213;DHT22;5150;51.400;6.692;2022-12-07T22:00:36;3.30;99.90
10213;DHT22;5150;51.400;6.692;2022-12-07T22:04:01;3.30;99.90
10213;DHT22;5150;51.400;6.692;2022-12-07T22:07:24;3.40;99.90
10213;DHT22;5150;51.400;6.692;2022-12-07T22:10:47;3.40;99.90
10213;DHT22;5150;51.400;6.692;2022-12-07T22:14:10;3.40;99.90
10213;DHT22;5150;51.400;6.692;2022-12-07T22:17:55;3.40;99.90
10213;DHT22;5150;51.400;6.692;2022-12-07T22:21:23;3.30;99.90
10213;DHT22;5150;51.400;6.692;2022-12-07T22:24:51;3.30;99.90
10213;DHT22;5150;51.400;6.692;2022-12-07T22:28:13;3.30;99.90
10213;DHT22;5150;51.400;6.692;2022-12-07T22:31:36;3.30;99.90
10213;DHT22;5150;51.400;6.692;2022-12-07T22:35:03;3.20;99.90
10213;DHT22;5150;51.400;6.692;2022-12-07T22:38:28;3.20;99.90